KWWD/WWD METAR and TAF weather

Enter ICAO airport designator
Station Type Date Time Source
KWWD METAR 2022/06/29 23:56 UTC NOAA

KWWD 292356Z AUTO 18010KT 10SM CLR 23/17 A3019 RMK AO2 SLP224 T02280172 10283 20228 56006 $


Station Type Date Time Source
KWWD Decoded METAR 2022/06/29 23:56 UTC NOAA

Wildwood, Cape May County Airport, NJ, United States (KWWD) 39-01N 074-55W
Jun 29, 2022 - 07:56 PM EDT / 2022.06.29 2356 UTC
Wind: from the S (180 degrees) at 12 MPH (10 KT):0
Visibility: 10 mile(s):0
Sky conditions: clear
Temperature: 73.0 F (22.8 C)
Dew Point: 63.0 F (17.2 C)
Relative Humidity: 70%
Pressure (altimeter): 30.19 in. Hg (1022 hPa)
Pressure tendency: 0.02 inches (0.6 hPa) lower than three hours ago
ob: KWWD 292356Z AUTO 18010KT 10SM CLR 23/17 A3019 RMK AO2 SLP224 T02280172 10283 20228 56006
cycle: 0

Station Type Date Time Source
KWWD TAF UTC NOAA

Error!

Example: see airport list